SAST/TTG METAR and TAF weather

Enter ICAO airport designator
Station Type Date Time Source
SAST METAR 2019/03/08 21:10 UTC NOAA

SAST 082110Z 18024KT 2000 RA SCT015 OVC025 22/18 Q1013


Station Type Date Time Source
SAST Decoded METAR 2019/03/08 21:10 UTC NOAA

Tartagal Aerodrome, Argentina (SAST) 22-39S 063-49W 450M
Mar 08, 2019 - 04:10 PM EST / 2019.03.08 2110 UTC
Wind: from the S (180 degrees) at 28 MPH (24 KT):0
Visibility: 1 mile(s):0
Sky conditions: overcast
Weather: rain
Temperature: 71 F (22 C)
Dew Point: 64 F (18 C)
Relative Humidity: 78%
Pressure (altimeter): 29.91 in. Hg (1013 hPa)
ob: SAST 082110Z 18024KT 2000 RA SCT015 OVC025 22/18 Q1013
cycle: 21

Station Type Date Time Source
SAST TAF UTC NOAA

Error!

Example: see airport list